createdAt,value
2018-02-27T00:00:11.231Z,-6.54
2018-02-27T00:02:40.186Z,-6.64
2018-02-27T00:05:08.372Z,-6.70
2018-02-27T00:07:36.558Z,-6.64
2018-02-27T00:10:04.741Z,-6.60
2018-02-27T00:12:32.933Z,-6.59
2018-02-27T00:15:01.896Z,-6.52
2018-02-27T00:17:30.115Z,-6.61
2018-02-27T00:19:58.296Z,-6.66
2018-02-27T00:22:26.507Z,-6.63
2018-02-27T00:24:54.687Z,-6.65
2018-02-27T00:27:22.906Z,-6.63
2018-02-27T00:29:51.111Z,-6.62
2018-02-27T00:32:19.287Z,-6.73
2018-02-27T00:34:47.477Z,-6.68
2018-02-27T00:37:15.661Z,-6.62
2018-02-27T00:39:43.850Z,-6.69
2018-02-27T00:42:12.066Z,-6.71
2018-02-27T00:44:40.249Z,-6.74
2018-02-27T00:47:08.445Z,-6.79
2018-02-27T00:49:36.646Z,-6.70
2018-02-27T00:52:04.844Z,-6.78
2018-02-27T00:54:33.807Z,-6.79
2018-02-27T00:57:01.982Z,-6.76
2018-02-27T00:59:30.170Z,-6.82
2018-02-27T01:01:58.406Z,-6.83
2018-02-27T01:04:26.595Z,-6.79
2018-02-27T01:07:01.702Z,-6.71
2018-02-27T01:09:29.951Z,-6.69
2018-02-27T01:11:58.115Z,-6.72
2018-02-27T01:14:26.322Z,-6.70
2018-02-27T01:16:54.558Z,-6.78
2018-02-27T01:19:22.762Z,-6.76
2018-02-27T01:21:51.732Z,-6.79
2018-02-27T01:24:19.914Z,-6.86
2018-02-27T01:26:48.916Z,-6.87
2018-02-27T01:29:17.865Z,-6.80
2018-02-27T01:31:46.038Z,-6.89
2018-02-27T01:34:14.996Z,-6.88
2018-02-27T01:36:43.174Z,-7.02
2018-02-27T01:39:11.378Z,-6.88
2018-02-27T01:41:39.592Z,-6.94
2018-02-27T01:44:08.551Z,-7.04
2018-02-27T01:46:36.734Z,-6.99
2018-02-27T01:49:04.932Z,-7.01
2018-02-27T01:51:33.131Z,-6.99
2018-02-27T01:54:01.329Z,-7.08
2018-02-27T01:56:29.511Z,-7.06
2018-02-27T01:58:57.716Z,-7.06
2018-02-27T02:01:25.911Z,-7.08
2018-02-27T02:03:54.868Z,-6.86
2018-02-27T02:06:23.066Z,-7.00
2018-02-27T02:08:51.262Z,-7.06
2018-02-27T02:11:20.206Z,-7.06
2018-02-27T02:13:48.419Z,-6.99
2018-02-27T02:16:17.370Z,-7.01
2018-02-27T02:18:45.566Z,-7.13
2018-02-27T02:21:13.765Z,-7.15
2018-02-27T02:23:42.726Z,-7.18
2018-02-27T02:26:10.954Z,-7.23
2018-02-27T02:28:39.141Z,-7.28
2018-02-27T02:31:07.338Z,-7.31
2018-02-27T02:33:35.516Z,-7.33
2018-02-27T02:36:03.701Z,-7.37
2018-02-27T02:38:31.929Z,-7.36
2018-02-27T02:41:00.133Z,-7.35
2018-02-27T02:43:28.358Z,-7.48
2018-02-27T02:45:57.311Z,-7.51
2018-02-27T02:48:25.501Z,-7.51
2018-02-27T02:50:53.698Z,-7.52
2018-02-27T02:53:21.896Z,-7.55
2018-02-27T02:55:50.104Z,-7.52
2018-02-27T02:58:18.321Z,-7.48
2018-02-27T03:00:46.530Z,-7.43
2018-02-27T03:03:14.730Z,-7.37
2018-02-27T03:05:42.910Z,-7.35
2018-02-27T03:08:11.111Z,-7.42
2018-02-27T03:10:39.298Z,-7.43
2018-02-27T03:13:07.491Z,-7.46
2018-02-27T03:15:36.437Z,-7.51
2018-02-27T03:18:04.618Z,-7.44
2018-02-27T03:20:32.833Z,-7.43
2018-02-27T03:23:01.807Z,-7.44
2018-02-27T03:25:29.981Z,-7.56
2018-02-27T03:27:58.181Z,-7.55
2018-02-27T03:30:27.126Z,-7.53
2018-02-27T03:32:55.303Z,-7.56
2018-02-27T03:35:23.498Z,-7.46
2018-02-27T03:37:51.685Z,-7.40
2018-02-27T03:40:19.885Z,-7.49
2018-02-27T03:42:48.080Z,-7.49
2018-02-27T03:45:16.288Z,-7.45
2018-02-27T03:47:44.482Z,-7.46
2018-02-27T03:50:13.457Z,-7.61
2018-02-27T03:52:41.651Z,-7.55
2018-02-27T03:55:10.614Z,-7.51
2018-02-27T03:57:38.814Z,-7.49
2018-02-27T04:00:07.776Z,-7.49
2018-02-27T04:02:36.722Z,-7.56
2018-02-27T04:05:04.922Z,-7.56
2018-02-27T04:07:33.115Z,-7.52
2018-02-27T04:10:01.308Z,-7.52
2018-02-27T04:12:29.518Z,-7.53
2018-02-27T04:14:58.479Z,-7.65
2018-02-27T04:17:26.688Z,-7.57
2018-02-27T04:19:54.877Z,-7.57
2018-02-27T04:22:23.062Z,-7.52
2018-02-27T04:24:51.260Z,-7.56
2018-02-27T04:27:19.687Z,-7.60
2018-02-27T04:29:48.628Z,-7.52
2018-02-27T04:32:16.848Z,-7.52
2018-02-27T04:34:45.818Z,-7.59
2018-02-27T04:37:14.008Z,-7.52
2018-02-27T04:39:42.190Z,-7.56
2018-02-27T04:42:11.137Z,-7.59
2018-02-27T04:44:39.333Z,-7.62
2018-02-27T04:47:07.524Z,-7.63
2018-02-27T04:49:35.703Z,-7.59
2018-02-27T04:52:04.698Z,-7.63
2018-02-27T04:54:33.790Z,-7.69
2018-02-27T04:57:01.986Z,-7.63
2018-02-27T04:59:30.986Z,-7.60
2018-02-27T05:01:59.180Z,-7.54
2018-02-27T05:04:27.367Z,-7.62
2018-02-27T05:06:55.779Z,-7.56
2018-02-27T05:09:23.963Z,-7.60
2018-02-27T05:11:53.038Z,-7.46
2018-02-27T05:14:22.720Z,-7.48
2018-02-27T05:16:50.904Z,-7.49
2018-02-27T05:19:19.107Z,-7.55
2018-02-27T05:21:47.303Z,-7.59
2018-02-27T05:24:16.278Z,-7.60
2018-02-27T05:26:44.459Z,-7.55
2018-02-27T05:29:12.684Z,-7.54
2018-02-27T05:31:40.933Z,-7.63
2018-02-27T05:34:09.876Z,-7.63
2018-02-27T05:36:38.063Z,-7.64
2018-02-27T05:39:06.274Z,-7.58
2018-02-27T05:41:35.216Z,-7.60
2018-02-27T05:44:03.395Z,-7.59
2018-02-27T05:46:31.574Z,-7.66
2018-02-27T05:48:59.753Z,-7.58
2018-02-27T05:51:27.939Z,-7.61
2018-02-27T05:53:56.135Z,-7.70
2018-02-27T05:56:25.188Z,-7.62
2018-02-27T05:58:53.377Z,-7.69
2018-02-27T06:01:21.617Z,-7.67
2018-02-27T06:03:49.821Z,-7.63
2018-02-27T06:06:18.026Z,-7.67
2018-02-27T06:08:46.998Z,-7.59
2018-02-27T06:11:15.180Z,-7.59
2018-02-27T06:13:43.410Z,-7.63
2018-02-27T06:16:11.586Z,-7.60
2018-02-27T06:18:39.792Z,-7.42
2018-02-27T06:21:07.971Z,-7.55
2018-02-27T06:23:36.185Z,-7.57
2018-02-27T06:26:04.411Z,-7.52
2018-02-27T06:28:32.686Z,-7.39
2018-02-27T06:31:00.963Z,-7.36
2018-02-27T06:33:29.179Z,-7.28
2018-02-27T06:35:58.123Z,-7.18
2018-02-27T06:38:26.335Z,-7.40
2018-02-27T06:40:55.299Z,-7.28
2018-02-27T06:43:23.519Z,-7.16
2018-02-27T06:45:52.490Z,-7.12
2018-02-27T06:48:20.677Z,-7.03
2018-02-27T06:50:49.642Z,-6.93
2018-02-27T06:53:17.894Z,-7.08
2018-02-27T06:55:46.126Z,-6.98
2018-02-27T06:58:15.079Z,-6.92
2018-02-27T07:00:43.288Z,-6.87
2018-02-27T07:03:12.235Z,-6.79
2018-02-27T07:05:40.412Z,-6.63
2018-02-27T07:08:08.627Z,-6.61
2018-02-27T07:10:36.815Z,-6.63
2018-02-27T07:13:05.787Z,-6.63
2018-02-27T07:15:34.755Z,-6.73
2018-02-27T07:18:02.933Z,-6.64
2018-02-27T07:20:31.110Z,-6.61
2018-02-27T07:22:59.292Z,-6.58
2018-02-27T07:25:27.466Z,-6.59
2018-02-27T07:27:55.636Z,-6.56
2018-02-27T07:30:23.814Z,-6.62
2018-02-27T07:32:52.012Z,-6.38
2018-02-27T07:35:20.986Z,-6.44
2018-02-27T07:37:49.179Z,-6.25
2018-02-27T07:40:18.123Z,-6.04
2018-02-27T07:42:46.315Z,-5.87
2018-02-27T07:45:14.504Z,-5.79
2018-02-27T07:47:42.701Z,-5.66
2018-02-27T07:50:11.717Z,-5.85
2018-02-27T07:52:39.898Z,-5.89
2018-02-27T07:55:08.089Z,-5.82
2018-02-27T07:57:36.284Z,-5.79
2018-02-27T08:00:04.467Z,-5.84
2018-02-27T08:02:32.649Z,-5.90
2018-02-27T08:05:00.910Z,-5.70
2018-02-27T08:07:29.110Z,-5.74
2018-02-27T08:09:58.078Z,-5.89
2018-02-27T08:12:26.260Z,-6.06
2018-02-27T08:14:54.619Z,-6.07
2018-02-27T08:17:22.816Z,-6.07
2018-02-27T08:19:51.010Z,-6.13
2018-02-27T08:22:19.969Z,-6.01
2018-02-27T08:24:48.162Z,-5.80
2018-02-27T08:27:16.347Z,-5.71
2018-02-27T08:29:44.540Z,-5.73
2018-02-27T08:32:13.514Z,-5.80
2018-02-27T08:34:41.718Z,-5.71
2018-02-27T08:37:09.914Z,-5.60
2018-02-27T08:39:38.083Z,-5.52
2018-02-27T08:42:06.266Z,-5.44
2018-02-27T08:44:34.462Z,-5.26
2018-02-27T08:47:02.656Z,-5.26
2018-02-27T08:49:30.844Z,-5.10
2018-02-27T08:51:59.111Z,-5.03
2018-02-27T08:54:27.294Z,-5.22
2018-02-27T08:56:55.472Z,-5.16
2018-02-27T08:59:24.430Z,-5.11
2018-02-27T09:01:52.605Z,-5.02
2018-02-27T09:04:20.779Z,-5.02
2018-02-27T09:06:48.967Z,-5.12
2018-02-27T09:09:17.165Z,-4.85
2018-02-27T09:11:46.128Z,-4.81
2018-02-27T09:14:14.315Z,-4.89
2018-02-27T09:16:42.503Z,-4.88
2018-02-27T09:19:10.720Z,-4.73
2018-02-27T09:21:39.661Z,-4.55
2018-02-27T09:24:07.855Z,-4.20
2018-02-27T09:26:36.825Z,-4.21
2018-02-27T09:29:05.012Z,-4.22
2018-02-27T09:31:33.182Z,-4.12
2018-02-27T09:34:01.329Z,-4.04
2018-02-27T09:36:29.514Z,-3.70
2018-02-27T09:38:57.687Z,-3.35
2018-02-27T09:41:25.856Z,-3.17
2018-02-27T09:43:53.998Z,-3.24
2018-02-27T09:46:22.205Z,-2.80
2018-02-27T09:48:50.359Z,-2.79
2018-02-27T09:51:18.544Z,-2.54
2018-02-27T09:53:46.695Z,-2.32
2018-02-27T09:56:14.858Z,-2.39
2018-02-27T09:58:43.091Z,-2.33
2018-02-27T10:01:11.265Z,-2.33
2018-02-27T10:03:39.432Z,-2.25
2018-02-27T10:06:07.586Z,-2.04
2018-02-27T10:08:35.734Z,-1.62
2018-02-27T10:11:03.905Z,-1.49
2018-02-27T10:13:32.069Z,-1.51
2018-02-27T10:16:01.032Z,-1.42
2018-02-27T10:18:29.185Z,-1.02
2018-02-27T10:20:57.358Z,-0.98
2018-02-27T10:23:25.559Z,-0.85
2018-02-27T10:25:53.746Z,-0.85
2018-02-27T10:28:22.665Z,-0.49
2018-02-27T10:30:50.861Z,-0.29
2018-02-27T10:33:19.040Z,0.05
2018-02-27T10:35:47.204Z,0.45
2018-02-27T10:38:15.354Z,0.27
2018-02-27T10:40:43.561Z,0.16
2018-02-27T10:43:11.710Z,0.22
2018-02-27T10:45:39.883Z,0.41
2018-02-27T10:48:08.031Z,0.78
2018-02-27T10:50:36.972Z,0.84
2018-02-27T10:53:05.166Z,0.90
2018-02-27T10:55:33.323Z,0.89
2018-02-27T10:58:01.462Z,1.09
2018-02-27T11:00:35.938Z,1.19
2018-02-27T11:03:04.087Z,1.45
2018-02-27T11:05:32.234Z,1.38
2018-02-27T11:08:01.151Z,1.37
2018-02-27T11:10:29.353Z,1.68
2018-02-27T11:12:57.509Z,2.01
2018-02-27T11:15:25.655Z,2.10
2018-02-27T11:17:54.568Z,2.04
2018-02-27T11:20:22.714Z,2.18
2018-02-27T11:22:51.637Z,2.22
2018-02-27T11:25:19.779Z,2.10
2018-02-27T11:27:48.778Z,2.00
2018-02-27T11:30:17.726Z,2.15
2018-02-27T11:32:45.911Z,2.51
2018-02-27T11:35:14.064Z,2.38
2018-02-27T11:37:42.210Z,2.07
2018-02-27T11:40:10.382Z,2.22
2018-02-27T11:42:38.594Z,2.34
2018-02-27T11:45:06.754Z,2.77
2018-02-27T11:47:34.913Z,2.53
2018-02-27T11:50:03.072Z,3.13
2018-02-27T11:52:31.219Z,4.06
2018-02-27T11:54:59.358Z,5.35
2018-02-27T11:57:27.504Z,6.11
2018-02-27T11:59:55.651Z,6.55
2018-02-27T12:02:24.562Z,6.97
2018-02-27T12:04:52.714Z,6.87
2018-02-27T12:07:21.624Z,6.96
2018-02-27T12:09:49.796Z,7.69
2018-02-27T12:12:18.690Z,8.70
2018-02-27T12:14:46.828Z,8.89
2018-02-27T12:17:14.999Z,7.39
2018-02-27T12:19:43.155Z,5.69
2018-02-27T12:22:12.341Z,4.43
2018-02-27T12:24:40.481Z,3.13
2018-02-27T12:27:09.383Z,2.28
2018-02-27T12:29:37.530Z,1.20
2018-02-27T12:32:06.449Z,0.23
2018-02-27T12:34:34.603Z,-0.11
2018-02-27T12:37:03.523Z,-0.72
2018-02-27T12:39:31.672Z,-1.04
2018-02-27T12:41:59.888Z,-0.90
2018-02-27T12:44:28.011Z,-0.81
2018-02-27T12:46:56.943Z,-1.02
2018-02-27T12:49:25.148Z,-1.44
2018-02-27T12:51:53.315Z,-1.74
2018-02-27T12:54:21.483Z,-1.75
2018-02-27T12:56:49.631Z,-1.85
2018-02-27T12:59:17.794Z,-1.93
2018-02-27T13:01:45.943Z,-1.88
2018-02-27T13:04:14.886Z,-2.08
2018-02-27T13:06:43.034Z,-2.10
2018-02-27T13:09:11.190Z,-2.12
2018-02-27T13:11:40.136Z,-2.40
2018-02-27T13:14:08.315Z,-2.71
2018-02-27T13:16:36.482Z,-2.49
2018-02-27T13:19:04.659Z,-2.32
2018-02-27T13:21:32.819Z,-2.20
2018-02-27T13:24:00.966Z,-2.66
2018-02-27T13:26:29.886Z,-2.80
2018-02-27T13:28:58.038Z,-2.62
2018-02-27T13:31:26.281Z,-2.45
2018-02-27T13:33:54.447Z,-2.48
2018-02-27T13:36:22.639Z,-2.36
2018-02-27T13:38:51.561Z,-2.68
2018-02-27T13:41:19.718Z,-2.70
2018-02-27T13:43:48.643Z,-3.29
2018-02-27T13:46:16.809Z,-3.53
2018-02-27T13:48:45.913Z,-3.67
2018-02-27T13:51:13.134Z,-3.58
2018-02-27T13:53:42.078Z,-3.59
2018-02-27T13:56:10.227Z,-3.88
2018-02-27T13:58:38.390Z,-3.88
2018-02-27T14:01:06.547Z,-4.15
2018-02-27T14:03:35.537Z,-4.35
2018-02-27T14:06:03.676Z,-4.17
2018-02-27T14:08:31.833Z,-4.13
2018-02-27T14:11:00.008Z,-4.08
2018-02-27T14:13:28.169Z,-4.11
2018-02-27T14:15:56.340Z,-4.12
2018-02-27T14:18:24.523Z,-3.97
2018-02-27T14:20:52.714Z,-3.68
2018-02-27T14:23:20.870Z,-3.52
2018-02-27T14:25:49.017Z,-3.52
2018-02-27T14:28:17.938Z,-3.67
2018-02-27T14:30:46.100Z,-3.61
2018-02-27T14:33:14.248Z,-3.44
2018-02-27T14:35:43.186Z,-3.35
2018-02-27T14:38:11.334Z,-3.28
2018-02-27T14:40:39.482Z,-3.19
2018-02-27T14:43:08.400Z,-3.05
2018-02-27T14:45:36.566Z,-3.15
2018-02-27T14:48:04.721Z,-2.87
2018-02-27T14:50:33.651Z,-3.04
2018-02-27T14:53:01.810Z,-3.29
2018-02-27T14:55:29.964Z,-3.30
2018-02-27T14:57:58.902Z,-3.49
2018-02-27T15:00:27.057Z,-3.64
2018-02-27T15:02:55.207Z,-3.62
2018-02-27T15:05:24.115Z,-3.86
2018-02-27T15:07:52.278Z,-3.84
2018-02-27T15:10:21.211Z,-3.73
2018-02-27T15:12:49.355Z,-3.97
2018-02-27T15:15:17.516Z,-3.96
2018-02-27T15:17:46.440Z,-3.90
2018-02-27T15:20:14.610Z,-4.03
2018-02-27T15:22:42.758Z,-4.22
2018-02-27T15:25:11.682Z,-4.25
2018-02-27T15:27:39.886Z,-4.32
2018-02-27T15:30:08.003Z,-4.33
2018-02-27T15:32:36.932Z,-4.39
2018-02-27T15:35:05.098Z,-4.46
2018-02-27T15:37:33.251Z,-4.38
2018-02-27T15:40:01.418Z,-4.50
2018-02-27T15:42:30.348Z,-4.32
2018-02-27T15:44:58.498Z,-4.41
2018-02-27T15:47:26.667Z,-4.64
2018-02-27T15:49:54.858Z,-4.67
2018-02-27T15:52:23.002Z,-4.68
2018-02-27T15:54:51.961Z,-4.87
2018-02-27T15:57:20.112Z,-4.88
2018-02-27T15:59:48.261Z,-4.80
2018-02-27T16:02:16.411Z,-4.76
2018-02-27T16:04:45.335Z,-4.81
2018-02-27T16:07:13.491Z,-4.91
2018-02-27T16:09:42.434Z,-4.94
2018-02-27T16:12:10.615Z,-4.88
2018-02-27T16:14:38.770Z,-4.90
2018-02-27T16:17:06.942Z,-4.83
2018-02-27T16:19:35.078Z,-4.93
2018-02-27T16:22:04.015Z,-5.04
2018-02-27T16:24:32.177Z,-5.21
2018-02-27T16:27:00.360Z,-5.24
2018-02-27T16:29:28.521Z,-5.12
2018-02-27T16:31:56.681Z,-5.09
2018-02-27T16:34:24.896Z,-5.21
2018-02-27T16:36:53.803Z,-5.26
2018-02-27T16:39:21.983Z,-5.24
2018-02-27T16:41:50.934Z,-5.19
2018-02-27T16:44:19.112Z,-5.20
2018-02-27T16:46:47.263Z,-5.44
2018-02-27T16:49:15.432Z,-5.42
2018-02-27T16:51:43.586Z,-5.51
2018-02-27T16:54:12.501Z,-5.55
2018-02-27T16:56:40.659Z,-5.57
2018-02-27T16:59:09.577Z,-5.55
2018-02-27T17:01:37.881Z,-5.48
2018-02-27T17:04:06.853Z,-5.34
2018-02-27T17:06:35.042Z,-5.48
2018-02-27T17:09:03.272Z,-5.52
2018-02-27T17:11:32.228Z,-5.60
2018-02-27T17:14:00.415Z,-5.64
2018-02-27T17:16:28.611Z,-5.65
2018-02-27T17:18:57.603Z,-5.56
2018-02-27T17:21:26.579Z,-5.63
2018-02-27T17:23:54.766Z,-5.57
2018-02-27T17:26:24.018Z,-5.64
2018-02-27T17:28:53.141Z,-5.65
2018-02-27T17:31:21.363Z,-5.74
2018-02-27T17:33:49.557Z,-5.71
2018-02-27T17:36:17.845Z,-5.72
2018-02-27T17:38:46.043Z,-5.73
2018-02-27T17:41:14.247Z,-5.70
2018-02-27T17:43:43.199Z,-5.72
2018-02-27T17:46:11.413Z,-5.85
2018-02-27T17:48:40.370Z,-5.95
2018-02-27T17:51:08.619Z,-6.04
2018-02-27T17:53:37.147Z,-6.05
2018-02-27T17:56:05.366Z,-6.18
2018-02-27T17:58:33.563Z,-6.37
2018-02-27T18:01:01.751Z,-6.31
2018-02-27T18:03:29.943Z,-6.34
2018-02-27T18:05:58.139Z,-6.42
2018-02-27T18:08:27.139Z,-6.63
2018-02-27T18:10:56.101Z,-6.73
2018-02-27T18:13:24.291Z,-6.93
2018-02-27T18:15:53.244Z,-6.83
2018-02-27T18:18:21.423Z,-6.75
2018-02-27T18:20:49.621Z,-6.67
2018-02-27T18:23:17.861Z,-6.62
2018-02-27T18:25:46.049Z,-6.52
2018-02-27T18:28:14.234Z,-6.53
2018-02-27T18:30:42.447Z,-6.56
2018-02-27T18:33:11.425Z,-6.51
2018-02-27T18:35:39.597Z,-6.44
2018-02-27T18:38:07.785Z,-6.53
2018-02-27T18:40:36.763Z,-6.58
2018-02-27T18:43:04.990Z,-6.65
2018-02-27T18:45:33.173Z,-6.61
2018-02-27T18:48:01.355Z,-6.71
2018-02-27T18:50:29.565Z,-6.68
2018-02-27T18:52:57.787Z,-6.83
2018-02-27T18:55:25.986Z,-6.87
2018-02-27T18:57:54.167Z,-6.87
2018-02-27T19:00:22.375Z,-6.90
2018-02-27T19:02:51.346Z,-6.79
2018-02-27T19:05:19.538Z,-6.97
2018-02-27T19:07:48.509Z,-7.02
2018-02-27T19:10:16.731Z,-7.01
2018-02-27T19:12:44.920Z,-7.02
2018-02-27T19:15:13.122Z,-7.03
2018-02-27T19:17:42.117Z,-7.06
2018-02-27T19:20:10.296Z,-7.20
2018-02-27T19:22:38.493Z,-7.20
2018-02-27T19:25:06.695Z,-7.36
2018-02-27T19:27:35.644Z,-7.42
2018-02-27T19:30:03.837Z,-7.46
2018-02-27T19:32:32.013Z,-7.55
2018-02-27T19:35:00.212Z,-7.41
2018-02-27T19:37:29.179Z,-7.34
2018-02-27T19:39:57.431Z,-7.47
2018-02-27T19:42:25.606Z,-7.46
2018-02-27T19:44:53.788Z,-7.54
2018-02-27T19:47:22.005Z,-7.56
2018-02-27T19:49:50.960Z,-7.61
2018-02-27T19:52:19.163Z,-7.70
2018-02-27T19:54:48.118Z,-7.68
2018-02-27T19:57:16.331Z,-7.69
2018-02-27T19:59:45.274Z,-7.55
2018-02-27T20:02:13.451Z,-7.61
2018-02-27T20:04:42.408Z,-7.64
2018-02-27T20:07:10.590Z,-7.67
2018-02-27T20:09:38.820Z,-7.72
2018-02-27T20:12:07.016Z,-7.84
2018-02-27T20:14:35.977Z,-7.74
2018-02-27T20:17:04.323Z,-7.73
2018-02-27T20:19:33.339Z,-7.79
2018-02-27T20:22:01.512Z,-7.80
2018-02-27T20:24:29.703Z,-7.78
2018-02-27T20:26:57.917Z,-7.85
2018-02-27T20:29:26.871Z,-7.90
2018-02-27T20:31:55.052Z,-7.88
2018-02-27T20:34:23.289Z,-7.90
2018-02-27T20:36:51.482Z,-7.93
2018-02-27T20:39:26.858Z,-8.02
2018-02-27T20:41:55.079Z,-7.93
2018-02-27T20:44:23.272Z,-7.82
2018-02-27T20:46:51.457Z,-8.01
2018-02-27T20:49:19.658Z,-7.99
2018-02-27T20:51:47.851Z,-8.06
2018-02-27T20:54:16.798Z,-8.10
2018-02-27T20:56:44.974Z,-8.10
2018-02-27T20:59:13.183Z,-8.11
2018-02-27T21:01:42.149Z,-8.16
2018-02-27T21:04:10.336Z,-8.21
2018-02-27T21:06:38.520Z,-8.20
2018-02-27T21:09:07.487Z,-8.22
2018-02-27T21:11:35.716Z,-8.29
2018-02-27T21:14:03.931Z,-8.29
2018-02-27T21:16:32.128Z,-8.32
2018-02-27T21:19:00.321Z,-8.38
2018-02-27T21:21:29.286Z,-8.40
2018-02-27T21:23:57.534Z,-8.40
2018-02-27T21:26:25.687Z,-8.38
2018-02-27T21:28:53.867Z,-8.43
2018-02-27T21:31:22.087Z,-8.49
2018-02-27T21:33:50.259Z,-8.44
2018-02-27T21:36:18.470Z,-8.31
2018-02-27T21:38:47.671Z,-8.39
2018-02-27T21:41:15.863Z,-8.49
2018-02-27T21:43:44.061Z,-8.58
2018-02-27T21:46:12.253Z,-8.68
2018-02-27T21:48:41.341Z,-8.74
2018-02-27T21:51:09.536Z,-8.71
2018-02-27T21:53:37.722Z,-8.75
2018-02-27T21:56:05.907Z,-8.76
2018-02-27T21:58:34.859Z,-8.78
2018-02-27T22:01:03.067Z,-8.88
2018-02-27T22:03:32.040Z,-8.91
2018-02-27T22:06:00.231Z,-8.95
2018-02-27T22:08:28.410Z,-9.00
2018-02-27T22:10:56.609Z,-9.03
2018-02-27T22:13:25.551Z,-9.13
2018-02-27T22:15:53.739Z,-9.15
2018-02-27T22:18:21.930Z,-9.13
2018-02-27T22:20:50.887Z,-9.11
2018-02-27T22:23:19.097Z,-9.12
2018-02-27T22:25:47.311Z,-9.08
2018-02-27T22:28:15.492Z,-9.16
2018-02-27T22:30:43.684Z,-9.18
2018-02-27T22:33:11.866Z,-9.24
2018-02-27T22:35:40.070Z,-9.31
2018-02-27T22:38:08.254Z,-9.33
2018-02-27T22:40:37.229Z,-9.38
2018-02-27T22:43:05.403Z,-9.47
2018-02-27T22:45:33.587Z,-9.49
2018-02-27T22:48:01.767Z,-9.41
2018-02-27T22:50:30.729Z,-9.37
2018-02-27T22:52:58.922Z,-9.33
2018-02-27T22:55:27.101Z,-9.40
2018-02-27T22:57:55.350Z,-9.46
2018-02-27T23:00:40.359Z,-9.50
2018-02-27T23:03:09.335Z,-9.58
2018-02-27T23:05:37.523Z,-9.62
2018-02-27T23:08:06.498Z,-9.67
2018-02-27T23:10:34.690Z,-9.64
2018-02-27T23:13:03.651Z,-9.65
2018-02-27T23:15:31.857Z,-9.68
2018-02-27T23:18:00.036Z,-9.65
2018-02-27T23:20:29.017Z,-9.63
2018-02-27T23:22:57.199Z,-9.62
2018-02-27T23:25:44.529Z,-9.60
2018-02-27T23:28:16.211Z,-9.52
2018-02-27T23:30:47.054Z,-9.51
2018-02-27T23:33:15.937Z,-9.53
2018-02-27T23:35:44.150Z,-9.54
2018-02-27T23:38:12.327Z,-9.56
2018-02-27T23:40:40.522Z,-9.51
2018-02-27T23:43:08.721Z,-9.51
2018-02-27T23:45:37.692Z,-9.49
2018-02-27T23:48:05.896Z,-9.42
2018-02-27T23:50:34.879Z,-9.42
2018-02-27T23:53:03.833Z,-9.46
2018-02-27T23:55:32.026Z,-9.45
2018-02-27T23:58:00.259Z,-9.41
